Time;durP1;ratioP1;P1;durP2;ratioP2;P2;SDS_P1;SDS_P2;PMS_P1;PMS_P2;Temp;Humidity;BMP_temperature;BMP_pressure;BME280_temperature;BME280_humidity;BME280_pressure;Samples;Min_cycle;Max_cycle;Signal;HPM_P1;HPM_P2
2021/09/06 00:00:09;;;;;;;2.72;1.52;;;;;;;15.34;53.25;101156.00;5047633;28;20044;-65
2021/09/06 00:02:34;;;;;;;2.13;1.45;;;;;;;15.31;53.51;101154.44;5030783;28;20061;-65
2021/09/06 00:04:59;;;;;;;5.05;1.60;;;;;;;15.24;53.74;101158.72;5047406;28;20073;-65
2021/09/06 00:07:25;;;;;;;2.97;1.30;;;;;;;15.20;54.00;101154.59;5014663;28;20018;-65
2021/09/06 00:09:56;;;;;;;3.03;1.40;;;;;;;15.12;53.80;101146.34;5012203;28;20046;-65
2021/09/06 00:12:22;;;;;;;1.13;0.90;;;;;;;15.12;53.96;101157.16;5011325;28;20378;-66
2021/09/06 00:14:47;;;;;;;1.77;1.20;;;;;;;15.12;54.08;101157.16;5012211;28;20037;-65
2021/09/06 00:17:13;;;;;;;2.97;1.05;;;;;;;15.11;54.05;101149.19;5012414;28;20030;-65
2021/09/06 00:19:38;;;;;;;3.30;1.33;;;;;;;15.14;54.01;101157.88;5012104;28;20025;-65
2021/09/06 00:22:04;;;;;;;2.03;1.23;;;;;;;15.06;54.05;101148.78;5012087;28;20018;-65
2021/09/06 00:24:29;;;;;;;2.65;1.40;;;;;;;15.09;54.39;101157.44;5012097;28;20037;-64
2021/09/06 00:26:55;;;;;;;2.58;1.63;;;;;;;15.13;54.03;101152.63;5009480;28;20151;-64
2021/09/06 00:29:20;;;;;;;2.38;1.70;;;;;;;15.16;54.15;101153.16;5012092;28;20030;-64
2021/09/06 00:31:46;;;;;;;2.60;1.48;;;;;;;15.14;54.33;101159.72;5030179;28;20477;-65
2021/09/06 00:34:11;;;;;;;2.08;1.10;;;;;;;15.09;54.56;101157.44;5031804;28;20087;-65
2021/09/06 00:36:37;;;;;;;2.78;1.30;;;;;;;15.06;54.90;101151.50;5031519;28;20044;-64
2021/09/06 00:39:02;;;;;;;3.35;1.35;;;;;;;15.05;54.71;101164.13;5031644;28;20061;-64
2021/09/06 00:41:28;;;;;;;1.90;1.40;;;;;;;15.04;54.79;101161.56;5031320;28;20041;-65
2021/09/06 00:43:54;;;;;;;2.83;1.60;;;;;;;14.99;55.13;101156.59;5031246;28;20721;-65
2021/09/06 00:46:20;;;;;;;3.38;1.80;;;;;;;14.93;55.35;101151.75;5031373;28;20053;-65
2021/09/06 00:48:45;;;;;;;2.03;1.35;;;;;;;14.87;55.58;101149.63;5031395;28;20092;-65
2021/09/06 00:51:11;;;;;;;2.42;1.67;;;;;;;14.88;55.63;101154.03;5030714;28;20033;-65
2021/09/06 00:53:36;;;;;;;3.15;1.73;;;;;;;14.89;55.64;101161.13;5011493;28;20108;-65
2021/09/06 00:56:03;;;;;;;3.40;1.58;;;;;;;14.84;55.79;101149.06;5011305;28;20515;-65
2021/09/06 00:58:29;;;;;;;3.13;1.63;;;;;;;14.76;56.07;101141.66;5025958;28;20041;-65
2021/09/06 01:00:54;;;;;;;3.58;1.58;;;;;;;14.79;56.06;101154.03;5021994;28;20688;-65
2021/09/06 01:03:20;;;;;;;3.65;1.40;;;;;;;14.74;56.36;101149.03;5030912;28;20057;-65
2021/09/06 01:05:45;;;;;;;2.10;1.40;;;;;;;14.67;56.83;101155.16;5031100;28;20030;-65
2021/09/06 01:08:11;;;;;;;4.45;1.50;;;;;;;14.56;56.75;101153.44;5030759;28;20096;-65
2021/09/06 01:10:36;;;;;;;1.67;1.17;;;;;;;14.56;56.90;101156.16;5030820;28;20040;-64
2021/09/06 01:13:02;;;;;;;2.45;1.33;;;;;;;14.52;57.16;101152.03;5046233;28;20083;-64
2021/09/06 01:15:27;;;;;;;2.85;1.95;;;;;;;14.53;57.09;101159.13;5030820;28;20113;-65
2021/09/06 01:17:53;;;;;;;2.45;1.50;;;;;;;14.48;57.15;101160.53;5030491;28;20025;-65
2021/09/06 01:20:18;;;;;;;2.95;1.48;;;;;;;14.45;57.39;101167.03;5030785;28;20120;-65
2021/09/06 01:22:44;;;;;;;2.47;1.67;;;;;;;14.40;57.98;101160.34;5030386;28;20112;-65
2021/09/06 01:25:14;;;;;;;4.75;1.60;;;;;;;14.35;58.27;101149.13;5030434;28;20021;-65
2021/09/06 01:27:40;;;;;;;2.00;1.50;;;;;;;14.26;58.49;101150.84;5030462;28;20028;-65
2021/09/06 01:30:06;;;;;;;1.95;1.15;;;;;;;14.30;58.49;101159.47;5030503;28;20100;-65
2021/09/06 01:32:31;;;;;;;2.67;1.38;;;;;;;14.28;58.81;101154.22;5045475;28;20377;-64
2021/09/06 01:34:57;;;;;;;2.97;1.83;;;;;;;14.22;58.90;101149.34;5018104;28;20034;-64
2021/09/06 01:37:22;;;;;;;2.65;1.58;;;;;;;14.21;59.05;101153.03;5010874;28;20031;-64
2021/09/06 01:39:48;;;;;;;2.17;1.50;;;;;;;14.16;59.45;101143.66;5010607;28;20034;-64
2021/09/06 01:42:13;;;;;;;2.97;1.80;;;;;;;14.21;59.69;101160.28;5010629;28;20053;-64
2021/09/06 01:44:39;;;;;;;3.28;1.60;;;;;;;14.15;59.72;101152.75;5010512;28;20057;-64
2021/09/06 01:47:04;;;;;;;2.58;1.60;;;;;;;14.17;60.28;101159.72;5010537;28;20153;-64
2021/09/06 01:49:30;;;;;;;2.80;1.70;;;;;;;14.15;60.63;101158.16;5010791;28;20029;-64
2021/09/06 01:51:55;;;;;;;6.15;1.70;;;;;;;14.11;60.82;101160.25;5017527;28;20474;-64
2021/09/06 01:54:21;;;;;;;1.85;1.55;;;;;;;14.09;60.80;101159.53;5011182;28;20037;-64
2021/09/06 01:56:46;;;;;;;2.50;1.40;;;;;;;13.95;61.19;101146.41;5009880;28;20033;-64
2021/09/06 01:59:11;;;;;;;4.72;1.73;;;;;;;14.06;60.96;101159.78;5009683;28;20034;-65
2021/09/06 02:01:37;;;;;;;3.85;1.90;;;;;;;14.06;61.03;101162.50;5016692;28;20074;-65
2021/09/06 02:04:02;;;;;;;2.78;1.52;;;;;;;14.04;61.23;101161.78;5029887;28;20521;-65
2021/09/06 02:06:28;;;;;;;3.45;1.73;;;;;;;14.04;60.92;101158.22;5030105;28;20136;-65
2021/09/06 02:08:53;;;;;;;6.78;2.03;;;;;;;14.00;61.03;101156.81;5029705;28;20041;-65
2021/09/06 02:11:19;;;;;;;2.80;1.60;;;;;;;14.04;61.34;101167.19;5030027;28;20026;-65
2021/09/06 02:13:44;;;;;;;3.30;1.63;;;;;;;14.02;61.21;101155.66;5023900;28;20121;-64
2021/09/06 02:16:10;;;;;;;3.90;1.65;;;;;;;14.04;60.98;101159.09;5010137;28;20112;-65
2021/09/06 02:18:35;;;;;;;2.97;1.58;;;;;;;14.06;61.17;101158.97;5010300;28;20030;-64
2021/09/06 02:21:01;;;;;;;2.70;1.67;;;;;;;14.06;61.28;101158.97;5010050;28;20022;-65
2021/09/06 02:23:26;;;;;;;4.40;2.15;;;;;;;14.04;61.81;101164.50;5010212;28;20037;-64
2021/09/06 02:25:52;;;;;;;3.03;1.73;;;;;;;14.00;61.57;101164.88;5009784;28;20057;-64
2021/09/06 02:28:17;;;;;;;5.68;1.85;;;;;;;14.01;61.28;101167.47;5010287;28;20021;-64
2021/09/06 02:30:43;;;;;;;3.05;1.63;;;;;;;13.99;61.52;101171.28;5009927;28;20120;-65
2021/09/06 02:33:08;;;;;;;3.38;1.65;;;;;;;13.93;61.41;101167.25;5010089;28;20033;-64
2021/09/06 02:35:34;;;;;;;7.22;1.85;;;;;;;13.93;61.29;101171.81;5021331;28;20029;-64
2021/09/06 02:37:59;;;;;;;3.28;1.90;;;;;;;13.91;61.51;101169.25;5018229;28;20109;-65
2021/09/06 02:40:25;;;;;;;3.05;1.67;;;;;;;13.91;61.43;101173.78;5024701;28;20034;-65
2021/09/06 02:42:51;;;;;;;5.03;1.50;;;;;;;13.84;61.35;101161.84;5028400;28;20083;-64
2021/09/06 02:45:16;;;;;;;2.75;1.65;;;;;;;13.88;61.17;101171.38;5027855;28;20044;-64
2021/09/06 02:47:47;;;;;;;4.18;2.03;;;;;;;13.84;61.46;101175.31;5018607;28;20092;-65
2021/09/06 02:50:13;;;;;;;2.75;1.80;;;;;;;13.78;61.28;101165.94;5026725;28;20055;-64
2021/09/06 02:52:38;;;;;;;7.00;1.92;;;;;;;13.74;61.27;101164.50;5021606;28;20022;-65
2021/09/06 02:55:05;;;;;;;4.50;1.80;;;;;;;13.74;61.07;101164.50;5019453;28;20052;-65
2021/09/06 02:57:30;;;;;;;2.92;1.77;;;;;;;13.71;61.42;101171.00;5019283;28;20109;-65
2021/09/06 02:59:56;;;;;;;3.40;1.48;;;;;;;13.67;61.67;101164.16;5026831;28;20498;-65
2021/09/06 03:02:21;;;;;;;4.05;1.75;;;;;;;13.65;61.48;101168.00;5021284;28;20478;-65
2021/09/06 03:04:46;;;;;;;3.85;2.05;;;;;;;13.62;61.54;101162.88;5025152;28;20482;-65
2021/09/06 03:07:12;;;;;;;4.93;2.10;;;;;;;13.63;61.42;101170.81;5026460;28;20375;-65
2021/09/06 03:09:37;;;;;;;5.10;2.25;;;;;;;13.55;61.58;101161.69;5025128;28;20120;-65
2021/09/06 03:12:03;;;;;;;2.72;1.70;;;;;;;13.56;61.87;101166.97;5021676;28;20078;-65
2021/09/06 03:14:29;;;;;;;5.30;1.95;;;;;;;13.54;61.46;101168.06;5027716;28;20032;-65
2021/09/06 03:16:54;;;;;;;4.07;1.92;;;;;;;13.54;61.30;101171.63;5020852;28;20029;-64
2021/09/06 03:19:20;;;;;;;6.63;2.00;;;;;;;13.50;61.76;101164.78;5019035;28;20041;-65
2021/09/06 03:21:45;;;;;;;5.07;1.67;;;;;;;13.50;61.41;101170.19;5023271;28;20040;-64
2021/09/06 03:24:11;;;;;;;3.88;2.00;;;;;;;13.49;61.51;101163.09;5020255;28;20116;-65
2021/09/06 03:26:37;;;;;;;4.97;2.00;;;;;;;13.50;61.95;101178.25;5018926;28;20030;-65
2021/09/06 03:29:02;;;;;;;2.95;1.75;;;;;;;13.46;61.76;101162.50;5019828;28;20305;-65
2021/09/06 03:31:31;;;;;;;3.55;1.98;;;;;;;13.46;61.69;101165.19;5020938;28;20021;-65
2021/09/06 03:33:56;;;;;;;4.60;2.03;;;;;;;13.39;61.72;101161.31;5022749;28;20608;-65
2021/09/06 03:36:22;;;;;;;5.90;2.25;;;;;;;13.44;61.50;101175.22;5020558;28;20104;-64
2021/09/06 03:38:48;;;;;;;7.05;2.53;;;;;;;13.42;61.61;101177.22;5026493;28;20029;-64
2021/09/06 03:41:14;;;;;;;5.68;1.98;;;;;;;13.42;61.49;101171.81;5017766;28;20397;-64
2021/09/06 03:43:39;;;;;;;4.22;2.03;;;;;;;13.36;60.93;101161.56;5025810;28;20075;-64
2021/09/06 03:46:05;;;;;;;7.47;2.30;;;;;;;13.39;60.94;101170.22;5018213;28;20033;-63
2021/09/06 03:48:30;;;;;;;5.03;2.15;;;;;;;13.46;61.33;101173.28;5017837;28;20030;-64
2021/09/06 03:50:56;;;;;;;3.83;1.83;;;;;;;13.38;60.72;101173.06;5025003;28;20044;-64
2021/09/06 03:53:21;;;;;;;3.80;2.38;;;;;;;13.45;60.71;101174.25;5019186;28;20493;-65
2021/09/06 03:55:47;;;;;;;6.32;2.20;;;;;;;13.47;60.38;101173.13;5012708;28;20029;-64
2021/09/06 03:58:12;;;;;;;4.35;1.88;;;;;;;13.43;60.13;101170.84;5011192;28;20038;-65
2021/09/06 04:00:38;;;;;;;6.43;2.30;;;;;;;13.47;60.56;101177.66;5011326;28;20053;-65
2021/09/06 04:03:04;;;;;;;6.55;1.88;;;;;;;13.52;60.25;101183.53;5011045;28;20041;-64
2021/09/06 04:05:29;;;;;;;5.38;2.50;;;;;;;13.51;60.45;101189.88;5012508;28;20029;-64
2021/09/06 04:07:55;;;;;;;7.13;2.55;;;;;;;13.51;61.27;101179.09;5012224;28;20034;-64
2021/09/06 04:10:20;;;;;;;5.35;2.28;;;;;;;13.44;61.37;101177.91;5011942;28;20046;-64
2021/09/06 04:12:46;;;;;;;5.95;2.13;;;;;;;13.34;61.61;101167.09;5012693;28;20398;-64
2021/09/06 04:15:12;;;;;;;4.85;1.95;;;;;;;13.42;61.45;101180.75;5011968;28;20038;-64
2021/09/06 04:17:38;;;;;;;8.25;2.22;;;;;;;13.42;61.04;101196.09;5012060;28;20041;-64
2021/09/06 04:20:05;;;;;;;11.48;2.25;;;;;;;13.32;61.48;101185.22;5012168;28;20068;-64
2021/09/06 04:22:30;;;;;;;12.13;2.72;;;;;;;13.36;61.89;101202.00;5012008;28;20025;-65
2021/09/06 04:24:56;;;;;;;6.90;2.40;;;;;;;13.33;61.56;101208.50;5011868;28;20041;-64
2021/09/06 04:27:21;;;;;;;6.32;2.58;;;;;;;13.21;61.50;101185.28;5027369;28;20034;-64
2021/09/06 04:29:47;;;;;;;9.82;2.83;;;;;;;13.35;61.30;101206.50;5010880;28;20453;-64
2021/09/06 04:32:12;;;;;;;5.65;2.15;;;;;;;13.36;61.59;101216.34;5011989;28;20104;-65
2021/09/06 04:34:37;;;;;;;7.53;2.40;;;;;;;13.32;61.47;101208.63;5011510;28;20030;-64
2021/09/06 04:37:04;;;;;;;9.38;2.58;;;;;;;13.36;61.07;101216.34;5011462;28;20084;-65
2021/09/06 04:39:30;;;;;;;7.55;1.92;;;;;;;13.37;60.96;101209.06;5011862;28;20029;-65
2021/09/06 04:41:55;;;;;;;9.35;2.13;;;;;;;13.32;61.27;101204.09;5011496;28;20038;-64
2021/09/06 04:44:21;;;;;;;7.78;2.38;;;;;;;13.30;61.03;101194.44;5017579;28;20079;-64
2021/09/06 04:46:46;;;;;;;6.43;2.10;;;;;;;13.41;61.00;101218.59;5031667;28;20150;-65
2021/09/06 04:49:12;;;;;;;6.32;2.33;;;;;;;13.45;60.54;101206.59;5030147;28;20036;-64
2021/09/06 04:51:37;;;;;;;5.65;2.08;;;;;;;13.44;60.68;101221.91;5027544;28;20030;-63
2021/09/06 04:54:03;;;;;;;8.75;2.50;;;;;;;13.46;60.21;101224.47;5010114;28;20037;-64
2021/09/06 04:56:28;;;;;;;15.00;2.88;;;;;;;13.49;60.17;101224.22;5011403;28;20084;-64
2021/09/06 04:58:54;;;;;;;10.40;2.45;;;;;;;13.53;60.02;101228.34;5011464;28;20018;-64
2021/09/06 05:01:20;;;;;;;13.32;2.72;;;;;;;13.49;60.30;101225.09;5015608;28;20033;-64
2021/09/06 05:03:45;;;;;;;8.82;2.35;;;;;;;13.44;59.32;101221.03;5010222;28;20038;-65
2021/09/06 05:06:11;;;;;;;8.60;2.75;;;;;;;13.59;59.61;101241.31;5009867;28;20049;-65
2021/09/06 05:08:36;;;;;;;8.77;3.10;;;;;;;13.61;59.77;101233.94;5010857;28;20465;-65
2021/09/06 05:11:02;;;;;;;7.65;2.15;;;;;;;13.66;59.71;101237.09;5011179;28;20068;-65
2021/09/06 05:13:28;;;;;;;11.55;3.25;;;;;;;13.68;59.71;101235.97;5011242;28;20068;-65
2021/09/06 05:15:53;;;;;;;10.10;2.65;;;;;;;13.73;59.60;101238.25;5009875;28;20037;-65
2021/09/06 05:18:19;;;;;;;8.52;2.70;;;;;;;13.75;59.23;101225.53;5011007;28;20034;-65
2021/09/06 05:20:45;;;;;;;16.40;2.97;;;;;;;13.86;58.78;101249.69;5010869;28;20022;-65
2021/09/06 05:23:10;;;;;;;5.68;2.35;;;;;;;13.91;58.45;101242.09;5010952;28;20038;-65
2021/09/06 05:25:36;;;;;;;10.30;3.15;;;;;;;14.04;58.05;101248.13;5010869;28;20041;-65
2021/09/06 05:28:03;;;;;;;12.27;2.42;;;;;;;14.10;58.17;101247.56;5009586;28;20458;-65
2021/09/06 05:30:28;;;;;;;12.68;3.03;;;;;;;14.11;58.05;101233.09;5010957;28;20048;-64
2021/09/06 05:32:53;;;;;;;9.45;2.90;;;;;;;14.29;57.39;101247.69;5010684;28;20030;-64
2021/09/06 05:35:19;;;;;;;8.85;2.15;;;;;;;14.33;57.11;101234.78;5009485;28;20026;-65
2021/09/06 05:37:44;;;;;;;7.25;2.25;;;;;;;14.45;56.79;101237.22;5010693;28;20040;-65
2021/09/06 05:40:11;;;;;;;12.55;3.10;;;;;;;14.62;56.56;101247.38;5010724;28;20109;-65
2021/09/06 05:42:36;;;;;;;9.05;2.80;;;;;;;14.72;56.31;101236.59;5009441;28;20044;-65
2021/09/06 05:45:03;;;;;;;9.90;2.58;;;;;;;14.86;56.46;101238.88;5025787;28;20029;-64
2021/09/06 05:47:29;;;;;;;10.63;2.45;;;;;;;14.88;55.98;101218.88;5009476;28;20030;-64
2021/09/06 05:49:54;;;;;;;10.73;2.45;;;;;;;15.12;55.58;101234.69;5010491;28;20025;-64
2021/09/06 05:52:20;;;;;;;6.85;2.38;;;;;;;15.29;54.91;101248.31;5010753;28;20498;-64
2021/09/06 05:54:45;;;;;;;14.23;2.60;;;;;;;15.44;54.74;101246.06;5009069;28;20052;-64
2021/09/06 05:57:11;;;;;;;5.95;2.53;;;;;;;15.60;53.49;101239.09;5010487;28;20033;-64
2021/09/06 05:59:36;;;;;;;4.75;2.13;;;;;;;15.70;53.23;101229.13;5010482;28;20116;-64
2021/09/06 06:02:02;;;;;;;6.90;2.60;;;;;;;15.93;52.00;101229.66;5008734;28;20038;-64
2021/09/06 06:04:28;;;;;;;8.32;2.40;;;;;;;16.08;52.12;101238.13;5010460;28;20037;-64
2021/09/06 06:06:53;;;;;;;9.63;2.40;;;;;;;16.24;51.91;101232.94;5010357;28;20454;-64
2021/09/06 06:09:19;;;;;;;4.25;2.40;;;;;;;16.38;51.53;101227.88;5009740;28;20048;-64
2021/09/06 06:11:44;;;;;;;9.45;2.30;;;;;;;16.54;51.09;101232.72;5010314;28;20022;-64
2021/09/06 06:14:10;;;;;;;6.00;1.77;;;;;;;16.72;49.55;101225.47;5010522;28;20026;-64
2021/09/06 06:16:36;;;;;;;6.05;2.35;;;;;;;16.91;49.31;101236.19;5010213;28;20061;-64
2021/09/06 06:19:02;;;;;;;3.95;1.80;;;;;;;17.03;49.57;101237.66;5008824;28;20042;-64
2021/09/06 06:21:29;;;;;;;4.82;1.92;;;;;;;17.18;48.56;101233.41;5010186;28;20509;-64
2021/09/06 06:23:55;;;;;;;6.13;1.92;;;;;;;17.33;48.23;101234.56;5010411;28;20083;-64
2021/09/06 06:26:21;;;;;;;4.65;2.05;;;;;;;17.52;47.85;101246.16;5010442;28;20014;-64
2021/09/06 06:28:47;;;;;;;5.30;2.10;;;;;;;17.66;47.30;101242.00;5010124;28;20033;-64
2021/09/06 06:31:12;;;;;;;5.28;2.38;;;;;;;17.79;47.04;101237.88;5010243;28;20128;-64
2021/09/06 06:33:38;;;;;;;5.72;2.17;;;;;;;17.91;46.54;101236.63;5003109;28;20382;-65
2021/09/06 06:36:04;;;;;;;3.83;2.10;;;;;;;18.05;46.72;101232.44;5026116;28;20045;-64
2021/09/06 06:38:34;;;;;;;5.00;2.53;;;;;;;18.23;46.23;101232.38;5010973;28;20034;-64
2021/09/06 06:41:01;;;;;;;6.38;1.95;;;;;;;18.43;46.17;101240.16;5001694;28;20034;-64
2021/09/06 06:43:29;;;;;;;3.13;1.25;;;;;;;18.61;45.31;101242.78;5008718;28;20048;-64
2021/09/06 06:45:55;;;;;;;5.03;2.03;;;;;;;18.80;45.03;101251.50;5009826;28;20505;-65
2021/09/06 06:48:21;;;;;;;7.28;2.50;;;;;;;18.89;44.50;101255.97;5009992;28;20045;-65
2021/09/06 06:50:46;;;;;;;3.90;1.63;;;;;;;19.01;43.79;101251.94;5020486;28;20033;-65
2021/09/06 06:53:12;;;;;;;7.20;2.15;;;;;;;19.22;43.22;101270.50;5029658;28;20076;-64
2021/09/06 06:55:37;;;;;;;6.25;1.88;;;;;;;19.32;42.80;101269.34;5029242;28;20033;-64
2021/09/06 06:58:03;;;;;;;5.07;1.70;;;;;;;19.44;42.58;101272.63;5028029;28;20091;-65
2021/09/06 07:00:29;;;;;;;5.88;2.08;;;;;;;19.55;42.40;101266.84;5029558;28;20025;-64
2021/09/06 07:02:54;;;;;;;5.95;1.70;;;;;;;19.70;42.74;101278.75;5029648;28;20059;-64
2021/09/06 07:05:20;;;;;;;4.88;2.08;;;;;;;19.84;41.89;101276.22;5029372;28;20067;-65
2021/09/06 07:07:45;;;;;;;7.05;1.98;;;;;;;19.98;41.55;101267.34;5029488;28;20026;-65
2021/09/06 07:10:11;;;;;;;7.18;2.20;;;;;;;20.12;41.36;101268.56;5029358;28;20052;-65
2021/09/06 07:12:38;;;;;;;4.45;1.48;;;;;;;20.25;40.75;101268.00;5027730;28;20030;-64
2021/09/06 07:15:06;;;;;;;9.25;2.20;;;;;;;20.41;40.48;101276.13;5029535;28;20782;-64
2021/09/06 07:17:31;;;;;;;9.40;2.03;;;;;;;20.49;40.57;101271.50;5029156;28;20049;-64
2021/09/06 07:19:57;;;;;;;5.72;2.00;;;;;;;20.67;40.29;101279.47;5029982;28;20033;-64
2021/09/06 07:22:22;;;;;;;4.38;2.03;;;;;;;20.76;40.41;101265.59;5032923;28;20218;-64
2021/09/06 07:24:48;;;;;;;5.88;2.42;;;;;;;20.87;39.81;101267.94;5032894;28;20029;-64
2021/09/06 07:27:14;;;;;;;6.80;2.13;;;;;;;21.02;39.80;101279.00;5032308;28;20037;-64
2021/09/06 07:29:39;;;;;;;3.15;1.92;;;;;;;21.19;40.12;101280.59;5032666;28;20150;-64
2021/09/06 07:32:05;;;;;;;4.07;1.60;;;;;;;21.35;39.67;101284.06;5032519;28;20036;-64
2021/09/06 07:34:35;;;;;;;6.22;2.17;;;;;;;21.53;39.23;101283.75;5032742;28;20029;-64
2021/09/06 07:37:04;;;;;;;8.85;2.15;;;;;;;21.66;39.04;101279.41;5032404;28;20025;-64
2021/09/06 07:39:30;;;;;;;8.15;1.85;;;;;;;21.82;38.43;101283.91;5032558;28;20087;-64
2021/09/06 07:41:55;;;;;;;4.47;1.85;;;;;;;21.96;38.65;101281.22;5032118;28;20041;-66
2021/09/06 07:44:21;;;;;;;4.68;2.15;;;;;;;22.14;38.29;101283.59;5032502;28;20029;-66
2021/09/06 07:46:46;;;;;;;4.97;1.77;;;;;;;22.27;37.71;101284.69;5047261;28;20033;-66
2021/09/06 07:49:12;;;;;;;4.97;1.88;;;;;;;22.41;37.90;101283.00;5032564;28;20123;-66
2021/09/06 07:51:37;;;;;;;4.40;1.92;;;;;;;22.61;37.46;101283.31;5032300;28;20027;-66
2021/09/06 07:54:05;;;;;;;11.75;2.30;;;;;;;22.77;36.82;101286.69;5032224;28;20059;-65
2021/09/06 07:56:31;;;;;;;6.18;2.30;;;;;;;22.96;36.56;101293.47;5031944;28;20027;-65
2021/09/06 07:58:56;;;;;;;4.55;2.58;;;;;;;23.16;36.06;101280.88;5032295;28;20033;-65
2021/09/06 08:01:22;;;;;;;6.68;1.98;;;;;;;;;;5032033;28;20030;-65
2021/09/06 08:03:47;;;;;;;5.15;1.83;;;;;;;23.80;35.36;101278.00;5032021;28;20088;-65
2021/09/06 08:06:12;;;;;;;6.40;1.92;;;;;;;24.31;34.67;101268.53;5031987;28;20044;-66
2021/09/06 08:08:38;;;;;;;6.97;2.15;;;;;;;25.03;33.45;101268.13;5031915;28;20045;-66
2021/09/06 08:11:03;;;;;;;7.25;2.20;;;;;;;25.76;32.01;101285.44;5031408;28;20127;-65
2021/09/06 08:13:29;;;;;;;3.40;2.03;;;;;;;26.65;30.77;101272.09;5031910;28;20080;-66
2021/09/06 08:15:54;;;;;;;5.70;2.20;;;;;;;27.68;29.53;101273.56;5031834;28;20075;-64
2021/09/06 08:18:20;;;;;;;5.15;1.75;;;;;;;28.77;28.35;101273.84;5031747;28;20040;-64
2021/09/06 08:20:45;;;;;;;7.47;2.33;;;;;;;29.80;26.75;101276.31;5032059;28;20025;-65
2021/09/06 08:23:11;;;;;;;7.18;2.25;;;;;;;30.64;25.93;101260.16;5031756;28;20033;-64
2021/09/06 08:25:36;;;;;;;7.50;2.00;;;;;;;31.57;24.71;101264.38;5031326;28;20064;-65
2021/09/06 08:28:02;;;;;;;6.32;2.47;;;;;;;32.22;23.77;101260.00;5031725;28;20033;-65
2021/09/06 08:30:27;;;;;;;5.20;2.22;;;;;;;32.77;23.25;101254.44;5031543;28;20079;-66
2021/09/06 08:32:53;;;;;;;5.63;2.25;;;;;;;33.29;22.73;101257.59;5030957;28;20048;-67
2021/09/06 08:35:19;;;;;;;8.88;2.10;;;;;;;33.69;22.18;101263.63;5031712;28;20037;-66
2021/09/06 08:37:45;;;;;;;5.18;2.08;;;;;;;34.03;21.76;101263.16;5031398;28;20053;-66
2021/09/06 08:40:12;;;;;;;3.53;1.65;;;;;;;34.23;21.78;101271.66;5031126;28;20530;-65
2021/09/06 08:42:38;;;;;;;9.35;2.30;;;;;;;34.36;21.27;101267.59;5004400;28;20029;-64
2021/09/06 08:45:06;;;;;;;4.28;1.98;;;;;;;34.12;21.71;101271.84;5011411;28;20044;-64
2021/09/06 08:47:32;;;;;;;4.13;1.98;;;;;;;33.56;21.91;101272.41;5011071;28;20109;-64
2021/09/06 08:49:58;;;;;;;4.38;2.03;;;;;;;33.03;22.62;101280.63;5011650;28;20390;-64
2021/09/06 08:52:23;;;;;;;3.78;2.10;;;;;;;32.19;23.56;101274.38;5025911;28;20033;-65
2021/09/06 08:54:49;;;;;;;4.82;2.30;;;;;;;31.74;23.94;101287.44;5010264;28;20025;-64
2021/09/06 08:57:14;;;;;;;5.28;2.10;;;;;;;31.09;24.08;101275.03;5011463;28;20105;-64
2021/09/06 08:59:44;;;;;;;4.35;2.08;;;;;;;30.60;24.97;101281.13;5011408;28;20048;-65
2021/09/06 09:02:09;;;;;;;10.60;2.35;;;;;;;30.01;25.46;101286.81;5010786;28;20045;-64
2021/09/06 09:04:35;;;;;;;6.97;2.38;;;;;;;29.49;26.32;101282.06;5010258;28;20362;-64
2021/09/06 09:07:02;;;;;;;4.32;2.20;;;;;;;29.05;26.51;101288.84;5009971;28;20034;-64
2021/09/06 09:09:33;;;;;;;5.50;1.70;;;;;;;28.75;27.13;101285.13;5010021;28;20038;-64
2021/09/06 09:12:12;;;;;;;9.57;1.92;;;;;;;28.46;27.09;101283.97;5009969;28;20026;-64
2021/09/06 09:14:41;;;;;;;4.63;2.00;;;;;;;28.11;27.69;101291.06;5009937;28;20411;-64
2021/09/06 09:17:07;;;;;;;10.82;2.30;;;;;;;27.85;28.24;101288.50;5009793;28;20037;-65
2021/09/06 09:19:33;;;;;;;6.53;2.17;;;;;;;27.69;28.04;101289.03;5010980;28;20037;-65
2021/09/06 09:22:04;;;;;;;6.40;1.90;;;;;;;27.55;27.99;101295.69;5011136;28;20070;-65
2021/09/06 09:24:30;;;;;;;9.18;2.55;;;;;;;27.27;27.92;101284.19;5009614;28;20042;-65
2021/09/06 09:27:00;;;;;;;7.60;2.17;;;;;;;27.06;28.47;101283.63;5010894;28;20044;-66
2021/09/06 09:29:27;;;;;;;3.10;1.90;;;;;;;26.98;28.48;101284.72;5010921;28;20053;-65
2021/09/06 09:31:57;;;;;;;4.43;2.13;;;;;;;26.80;28.65;101284.59;5009488;28;20026;-65
2021/09/06 09:34:23;;;;;;;4.03;1.85;;;;;;;26.68;29.34;101289.06;5010803;28;20438;-64
2021/09/06 09:36:52;;;;;;;5.22;2.50;;;;;;;26.58;29.48;101291.38;5010648;28;20030;-64
2021/09/06 09:39:20;;;;;;;5.28;2.22;;;;;;;26.46;29.35;101293.09;5013314;28;20037;-64
2021/09/06 09:41:51;;;;;;;12.73;2.35;;;;;;;26.38;29.91;101287.81;5045536;28;20037;-64
2021/09/06 09:44:22;;;;;;;3.90;2.13;;;;;;;26.29;29.36;101283.59;5044759;28;20021;-64
2021/09/06 09:46:59;;;;;;;3.80;1.85;;;;;;;26.19;30.09;101294.19;5030101;28;20035;-64
2021/09/06 09:49:27;;;;;;;4.72;2.28;;;;;;;26.09;29.91;101286.34;5030270;28;20065;-66
2021/09/06 09:51:53;;;;;;;4.57;2.20;;;;;;;26.03;29.70;101286.34;5024073;28;20400;-66
2021/09/06 09:54:19;;;;;;;2.83;1.83;;;;;;;25.93;30.27;101283.97;5010426;28;20041;-66
2021/09/06 09:56:46;;;;;;;4.72;2.10;;;;;;;25.93;30.31;101283.16;5023889;28;20041;-65
2021/09/06 09:59:16;;;;;;;5.78;2.25;;;;;;;25.85;30.55;101273.19;5010362;28;20579;-65
2021/09/06 10:02:15;;;;;;;3.75;2.10;;;;;;;25.97;30.13;101281.69;5010500;28;20479;-64
2021/09/06 10:05:05;;;;;;;5.50;1.90;;;;;;;25.92;30.20;101276.78;5010386;28;20038;-64
2021/09/06 10:07:34;;;;;;;3.53;2.08;;;;;;;25.90;30.14;101280.81;5001946;28;20069;-64
2021/09/06 10:10:16;;;;;;;7.97;1.83;;;;;;;25.92;30.51;101271.28;5010253;28;20526;-64
2021/09/06 10:12:42;;;;;;;8.25;2.30;;;;;;;25.90;30.29;101272.56;5010209;28;20021;-64
2021/09/06 10:15:09;;;;;;;5.22;1.88;;;;;;;25.86;30.36;101274.06;5010135;28;20038;-64
2021/09/06 10:17:35;;;;;;;6.35;2.17;;;;;;;25.86;29.93;101271.31;5010137;28;20399;-64
2021/09/06 10:20:15;;;;;;;4.75;2.40;;;;;;;25.82;30.16;101265.38;5010298;28;20037;-65
2021/09/06 10:22:42;;;;;;;4.00;2.47;;;;;;;25.75;30.40;101253.53;5010173;28;20119;-64
2021/09/06 10:25:11;;;;;;;4.75;2.17;;;;;;;25.79;30.41;101256.72;5009947;28;20033;-64
2021/09/06 10:27:49;;;;;;;6.40;2.50;;;;;;;25.72;30.17;101253.94;5010214;28;20025;-64
2021/09/06 10:30:15;;;;;;;6.40;2.55;;;;;;;25.77;30.61;101262.44;5010037;28;20048;-64
2021/09/06 10:32:50;;;;;;;11.18;2.58;;;;;;;25.71;30.50;101248.66;5010058;28;20026;-65
2021/09/06 10:35:20;;;;;;;8.57;2.30;;;;;;;25.71;30.37;101263.25;5010070;28;20033;-65
2021/09/06 10:37:47;;;;;;;5.55;2.20;;;;;;;25.64;30.79;101254.16;5025117;28;20042;-65
2021/09/06 10:40:24;;;;;;;4.10;2.03;;;;;;;25.59;30.87;101253.94;5025310;28;20029;-64
2021/09/06 10:42:50;;;;;;;2.90;2.00;;;;;;;25.58;30.77;101251.41;5029537;28;20120;-64
2021/09/06 10:45:16;;;;;;;6.85;2.50;;;;;;;25.58;30.93;101259.63;5029752;28;20160;-64
2021/09/06 10:47:42;;;;;;;4.03;2.50;;;;;;;25.56;31.08;101265.34;5029640;28;20047;-64
2021/09/06 10:50:17;;;;;;;6.00;2.42;;;;;;;25.57;30.88;101255.22;5043807;28;20033;-65
2021/09/06 10:52:49;;;;;;;4.18;2.28;;;;;;;25.55;31.07;101258.16;5025102;28;20087;-64
2021/09/06 10:55:16;;;;;;;4.82;2.35;;;;;;;25.54;30.90;101250.13;5011038;28;20045;-65
2021/09/06 10:57:43;;;;;;;6.63;2.75;;;;;;;25.53;31.02;101248.41;5012527;28;20037;-65
2021/09/06 11:00:23;;;;;;;5.20;1.92;;;;;;;25.57;30.96;101253.28;5013363;28;20105;-65
2021/09/06 11:02:50;;;;;;;6.47;2.75;;;;;;;25.55;31.03;101247.16;5013732;28;20030;-64
2021/09/06 11:05:22;;;;;;;9.40;2.90;;;;;;;25.59;30.86;101250.31;5013643;28;20104;-65
2021/09/06 11:07:48;;;;;;;8.00;2.55;;;;;;;25.54;31.18;101245.47;5028681;28;20383;-66
2021/09/06 11:10:19;;;;;;;3.90;2.40;;;;;;;25.52;31.21;101243.97;5024845;28;20050;-66
2021/09/06 11:12:54;;;;;;;6.45;2.55;;;;;;;25.47;31.43;101238.28;5033099;28;20014;-67
2021/09/06 11:15:27;;;;;;;3.78;2.30;;;;;;;25.50;31.65;101243.38;5033209;28;20517;-66
2021/09/06 11:18:05;;;;;;;7.35;2.65;;;;;;;25.50;31.85;101251.59;5033081;28;20100;-66
2021/09/06 11:20:33;;;;;;;9.45;2.85;;;;;;;25.54;31.94;101250.13;5031685;28;20807;-66